Time;durP1;ratioP1;P1;durP2;ratioP2;P2;SDS_P1;SDS_P2;PMS_P1;PMS_P2;Temp;Humidity;BMP_temperature;BMP_pressure;BME280_temperature;BME280_humidity;BME280_pressure;Samples;Min_cycle;Max_cycle;Signal;HPM_P1;HPM_P2
2023/07/02 00:01:50;;;;;;;2.80;2.60;;;16.70;99.90;;;;;;5068750;28;20451;-92
2023/07/02 00:04:19;;;;;;;2.67;2.00;;;16.70;99.90;;;;;;5067598;28;20471;-93
2023/07/02 00:06:48;;;;;;;2.53;2.33;;;16.70;99.90;;;;;;5071007;28;20455;-93
2023/07/02 00:09:15;;;;;;;1.83;1.70;;;16.70;99.90;;;;;;5068523;28;20590;-92
2023/07/02 00:11:44;;;;;;;3.70;2.70;;;16.70;99.90;;;;;;5068153;28;20462;-93
2023/07/02 00:14:11;;;;;;;2.50;2.03;;;16.70;99.90;;;;;;5066483;28;20518;-93
2023/07/02 00:16:40;;;;;;;2.43;2.20;;;16.70;99.90;;;;;;5069559;28;20469;-92
2023/07/02 00:19:07;;;;;;;2.03;1.80;;;16.60;99.90;;;;;;5068927;28;20461;-92
2023/07/02 00:21:37;;;;;;;2.80;2.60;;;16.60;99.90;;;;;;5070095;28;20546;-92
2023/07/02 00:24:05;;;;;;;2.80;2.60;;;16.60;99.90;;;;;;5071291;28;20468;-93
2023/07/02 00:26:32;;;;;;;3.00;2.53;;;16.50;99.90;;;;;;5069523;28;20464;-92
2023/07/02 00:28:59;;;;;;;2.33;1.80;;;16.50;99.90;;;;;;5068528;28;20466;-92
2023/07/02 00:31:26;;;;;;;2.80;2.07;;;16.50;99.90;;;;;;5072519;28;20455;-93
2023/07/02 00:33:53;;;;;;;2.53;2.33;;;16.50;99.90;;;;;;5068711;28;20471;-92
2023/07/02 00:36:19;;;;;;;3.17;2.90;;;16.50;99.90;;;;;;5068502;28;20451;-92
2023/07/02 00:38:47;;;;;;;3.57;2.50;;;16.40;99.90;;;;;;5068797;28;20480;-93
2023/07/02 00:41:16;;;;;;;2.20;2.00;;;16.40;99.90;;;;;;5068291;28;20459;-93
2023/07/02 00:43:44;;;;;;;2.50;2.30;;;16.40;99.90;;;;;;5067572;28;20467;-92
2023/07/02 00:46:17;;;;;;;3.00;2.30;;;16.40;99.90;;;;;;5073940;28;20459;-93
2023/07/02 00:48:46;;;;;;;2.67;2.47;;;16.40;99.90;;;;;;5079665;28;20451;-94
2023/07/02 00:51:15;;;;;;;2.33;2.13;;;16.30;99.90;;;;;;5075115;28;20470;-93
2023/07/02 00:53:42;;;;;;;2.50;2.30;;;16.30;99.90;;;;;;5070955;28;20472;-93
2023/07/02 00:56:09;;;;;;;2.40;2.20;;;16.30;99.90;;;;;;5074477;28;20518;-94
2023/07/02 00:58:48;;;;;;;2.23;2.10;;;16.30;99.90;;;;;;5075496;28;20456;-92
2023/07/02 01:01:16;;;;;;;2.27;2.03;;;16.30;99.90;;;;;;5066199;28;20466;-93
2023/07/02 01:03:53;;;;;;;2.90;2.60;;;16.30;99.90;;;;;;5065637;28;20459;-92
2023/07/02 01:06:24;;;;;;;2.10;1.90;;;16.30;99.90;;;;;;5065456;28;20509;-93
2023/07/02 01:08:52;;;;;;;2.90;2.70;;;16.40;99.90;;;;;;5066351;28;20471;-92
2023/07/02 01:11:21;;;;;;;2.80;2.40;;;16.30;99.90;;;;;;5065902;28;20972;-93
2023/07/02 01:13:51;;;;;;;2.50;2.30;;;16.30;99.90;;;;;;5065815;28;20467;-92
2023/07/02 01:16:18;;;;;;;2.30;2.10;;;16.30;99.90;;;;;;5066334;28;20957;-92
2023/07/02 01:18:45;;;;;;;2.33;2.13;;;16.30;99.90;;;;;;5066432;28;20456;-92
2023/07/02 01:21:14;;;;;;;2.50;2.30;;;16.30;99.90;;;;;;5067199;28;20471;-92
2023/07/02 01:23:41;;;;;;;2.30;2.10;;;16.30;99.90;;;;;;5065013;28;20458;-92
2023/07/02 01:26:08;;;;;;;2.50;2.30;;;16.30;99.90;;;;;;5064271;28;20877;-92
2023/07/02 01:28:38;;;;;;;3.90;2.50;;;16.30;99.90;;;;;;5063906;28;20468;-93
2023/07/02 01:31:05;;;;;;;4.63;2.30;;;16.30;99.90;;;;;;5063734;28;20486;-92
2023/07/02 01:33:32;;;;;;;2.93;2.10;;;16.30;99.90;;;;;;5064748;28;20475;-92
2023/07/02 01:35:59;;;;;;;2.80;2.20;;;16.20;99.90;;;;;;5063857;28;20484;-93
2023/07/02 01:38:28;;;;;;;2.40;1.90;;;16.20;99.90;;;;;;5064585;28;20452;-92
2023/07/02 01:40:55;;;;;;;2.30;2.10;;;16.20;99.90;;;;;;5064438;28;20451;-91
2023/07/02 01:43:21;;;;;;;2.23;2.03;;;16.20;99.90;;;;;;5068764;28;20451;-92
2023/07/02 01:45:49;;;;;;;2.33;2.13;;;16.20;99.90;;;;;;5064865;28;20482;-92
2023/07/02 01:48:15;;;;;;;3.13;2.63;;;16.20;99.90;;;;;;5064898;28;20468;-92
2023/07/02 01:50:42;;;;;;;2.20;2.00;;;16.20;99.90;;;;;;5064809;28;20534;-92
2023/07/02 01:53:09;;;;;;;2.57;2.37;;;16.20;99.90;;;;;;5064457;28;20470;-92
2023/07/02 01:55:37;;;;;;;2.53;2.10;;;16.10;99.90;;;;;;5064036;28;20494;-92
2023/07/02 01:58:04;;;;;;;2.30;2.10;;;16.10;99.90;;;;;;5065050;28;20463;-93
2023/07/02 02:00:31;;;;;;;2.30;2.10;;;16.00;99.90;;;;;;5064618;28;20463;-93
2023/07/02 02:02:57;;;;;;;2.20;2.00;;;16.00;99.90;;;;;;5064920;28;20519;-92
2023/07/02 02:05:24;;;;;;;2.60;2.00;;;15.90;99.90;;;;;;5065830;28;20491;-93
2023/07/02 02:07:51;;;;;;;2.27;2.07;;;15.90;99.90;;;;;;5064067;28;20471;-93
2023/07/02 02:10:18;;;;;;;3.20;2.90;;;15.90;99.90;;;;;;5064666;28;20471;-92
2023/07/02 02:12:46;;;;;;;2.20;2.00;;;15.90;99.90;;;;;;5066112;28;20467;-92
2023/07/02 02:15:14;;;;;;;2.20;2.00;;;15.80;99.90;;;;;;5065546;28;20491;-93
2023/07/02 02:17:41;;;;;;;2.30;2.10;;;15.80;99.90;;;;;;5065030;28;20463;-92
2023/07/02 02:22:49;;;;;;;2.63;2.43;;;15.80;99.90;;;;;;5067597;28;20447;-92
2023/07/02 02:25:16;;;;;;;2.90;2.60;;;15.80;99.90;;;;;;5073066;28;20489;-91
2023/07/02 02:27:44;;;;;;;2.53;2.20;;;15.80;99.90;;;;;;5071437;28;20467;-90
2023/07/02 02:30:12;;;;;;;2.13;1.93;;;15.80;99.90;;;;;;5071543;28;20459;-91
2023/07/02 02:32:39;;;;;;;2.40;2.20;;;15.80;99.90;;;;;;5066813;28;20475;-92
2023/07/02 02:35:08;;;;;;;2.40;1.93;;;15.70;99.90;;;;;;5065053;28;20484;-92
2023/07/02 02:37:36;;;;;;;2.37;2.17;;;15.70;99.90;;;;;;5065174;28;20452;-92
2023/07/02 02:40:02;;;;;;;2.40;2.20;;;15.70;99.90;;;;;;5066334;28;20512;-93
2023/07/02 02:42:29;;;;;;;2.30;2.10;;;15.70;99.90;;;;;;5069116;28;20477;-92
2023/07/02 02:44:56;;;;;;;2.73;2.37;;;15.70;99.90;;;;;;5064038;28;20475;-91
2023/07/02 02:47:24;;;;;;;2.40;2.20;;;15.70;99.90;;;;;;5063059;28;20460;-92
2023/07/02 02:49:51;;;;;;;3.20;2.90;;;15.70;99.90;;;;;;5063192;28;20475;-92
2023/07/02 02:52:18;;;;;;;2.57;2.37;;;15.70;99.90;;;;;;5063609;28;20470;-92
2023/07/02 02:54:44;;;;;;;2.10;1.90;;;15.70;99.90;;;;;;5066244;28;20885;-93
2023/07/02 02:57:11;;;;;;;2.80;2.50;;;15.70;99.90;;;;;;5069885;28;20472;-92
2023/07/02 02:59:38;;;;;;;2.27;2.07;;;15.80;99.90;;;;;;5064548;28;20810;-92
2023/07/02 03:02:05;;;;;;;2.50;2.23;;;15.80;99.90;;;;;;5064807;28;20477;-91
2023/07/02 03:04:33;;;;;;;2.90;2.40;;;15.80;99.90;;;;;;5065562;28;20487;-92
2023/07/02 03:07:00;;;;;;;2.23;2.03;;;15.80;99.90;;;;;;5064720;28;20455;-92
2023/07/02 03:09:27;;;;;;;9.30;2.40;;;15.80;99.90;;;;;;5065325;28;20462;-92
2023/07/02 03:11:54;;;;;;;2.13;2.00;;;15.80;99.90;;;;;;5066620;28;20465;-92
2023/07/02 03:14:20;;;;;;;2.70;2.47;;;15.80;99.90;;;;;;5066199;28;20498;-92
2023/07/02 03:16:47;;;;;;;2.80;2.27;;;15.80;99.90;;;;;;5063943;28;20459;-92
2023/07/02 03:19:15;;;;;;;2.50;1.87;;;15.80;99.90;;;;;;5063933;28;20463;-92
2023/07/02 03:21:44;;;;;;;3.20;2.13;;;15.70;99.90;;;;;;5063762;28;20461;-92
2023/07/02 03:24:13;;;;;;;3.37;2.33;;;15.70;99.90;;;;;;5065753;28;20483;-91
2023/07/02 03:26:40;;;;;;;2.83;2.60;;;15.70;99.90;;;;;;5065057;28;20456;-91
2023/07/02 03:29:07;;;;;;;2.83;2.47;;;15.70;99.90;;;;;;5066443;28;20456;-92
2023/07/02 03:31:34;;;;;;;2.33;2.13;;;15.70;99.90;;;;;;5066609;28;20455;-92
2023/07/02 03:34:04;;;;;;;4.27;2.90;;;15.60;99.90;;;;;;5066957;28;20471;-91
2023/07/02 03:36:31;;;;;;;3.93;2.70;;;15.60;99.90;;;;;;5069178;28;20486;-92
2023/07/02 03:38:59;;;;;;;2.67;2.47;;;15.60;99.90;;;;;;5067555;28;20460;-92
2023/07/02 03:41:26;;;;;;;2.37;2.10;;;15.60;99.90;;;;;;5068184;28;20465;-92
2023/07/02 03:43:53;;;;;;;2.70;2.37;;;15.50;99.90;;;;;;5069138;28;20451;-92
2023/07/02 03:46:20;;;;;;;2.53;2.33;;;15.40;99.90;;;;;;5068882;28;20491;-92
2023/07/02 03:48:46;;;;;;;2.83;2.30;;;15.40;99.90;;;;;;5067489;28;20523;-93
2023/07/02 03:51:14;;;;;;;8.70;2.90;;;15.40;99.90;;;;;;5067877;28;20458;-91
2023/07/02 03:53:41;;;;;;;3.03;2.10;;;15.40;99.90;;;;;;5068528;28;20483;-92
2023/07/02 03:56:09;;;;;;;5.30;2.20;;;15.40;99.90;;;;;;5071408;28;20483;-92
2023/07/02 03:58:36;;;;;;;3.07;2.77;;;15.30;99.90;;;;;;5071876;28;20470;-93
2023/07/02 04:01:03;;;;;;;2.17;1.97;;;15.20;99.90;;;;;;5071923;28;20451;-92
2023/07/02 04:03:29;;;;;;;2.93;2.73;;;15.20;99.90;;;;;;5071921;28;20459;-92
2023/07/02 04:05:56;;;;;;;3.10;2.80;;;15.20;99.90;;;;;;5071907;28;20481;-94
2023/07/02 04:08:24;;;;;;;3.57;2.27;;;15.20;99.90;;;;;;5069601;28;20486;-92
2023/07/02 04:10:51;;;;;;;2.80;2.43;;;15.10;99.90;;;;;;5069626;28;20505;-92
2023/07/02 04:13:19;;;;;;;2.40;2.20;;;15.10;99.90;;;;;;5069418;28;20450;-93
2023/07/02 04:15:46;;;;;;;3.00;2.40;;;15.20;99.90;;;;;;5069482;28;20486;-94
2023/07/02 04:18:13;;;;;;;6.67;2.50;;;15.10;99.90;;;;;;5068997;28;20467;-93
2023/07/02 04:20:40;;;;;;;3.57;2.40;;;15.10;99.90;;;;;;5069410;28;20466;-94
2023/07/02 04:23:07;;;;;;;3.57;3.23;;;15.10;99.90;;;;;;5070227;28;20452;-93
2023/07/02 04:25:34;;;;;;;6.40;2.80;;;15.20;99.90;;;;;;5050662;28;21091;-93
2023/07/02 04:28:01;;;;;;;4.13;2.57;;;15.20;99.90;;;;;;5049450;28;20463;-93
2023/07/02 04:30:29;;;;;;;4.07;2.73;;;15.20;99.90;;;;;;5052145;28;20462;-94
2023/07/02 04:32:56;;;;;;;3.10;2.80;;;15.20;99.90;;;;;;5052954;28;20466;-93
2023/07/02 04:35:23;;;;;;;3.40;2.70;;;15.30;99.90;;;;;;5051614;28;20560;-94
2023/07/02 04:37:50;;;;;;;2.77;2.20;;;15.30;99.90;;;;;;5051726;28;20824;-94
2023/07/02 04:40:17;;;;;;;3.60;2.20;;;15.30;99.90;;;;;;5056340;28;20487;-93
2023/07/02 04:42:47;;;;;;;3.27;2.53;;;15.30;99.90;;;;;;5053401;28;20468;-94
2023/07/02 04:45:16;;;;;;;2.90;2.60;;;15.30;99.90;;;;;;5052998;28;20473;-93
2023/07/02 04:47:46;;;;;;;3.50;3.20;;;15.30;99.90;;;;;;5052554;28;20456;-93
2023/07/02 04:50:13;;;;;;;3.20;2.90;;;15.30;99.90;;;;;;5052679;28;20456;-93
2023/07/02 04:52:40;;;;;;;3.23;2.93;;;15.30;99.90;;;;;;5052615;28;20524;-94
2023/07/02 04:55:07;;;;;;;6.83;2.70;;;15.30;99.90;;;;;;5050069;28;20583;-92
2023/07/02 04:57:34;;;;;;;3.80;2.17;;;15.30;99.90;;;;;;5051756;28;20536;-93
2023/07/02 05:00:01;;;;;;;2.00;1.87;;;15.40;99.90;;;;;;5051447;28;20465;-94
2023/07/02 05:02:28;;;;;;;2.83;2.33;;;15.40;99.90;;;;;;5050010;28;20531;-93
2023/07/02 05:04:56;;;;;;;4.97;2.47;;;15.40;99.90;;;;;;5053999;28;20464;-94
2023/07/02 05:07:23;;;;;;;2.83;2.30;;;15.50;99.90;;;;;;5052277;28;20563;-93
2023/07/02 05:09:52;;;;;;;2.63;2.43;;;15.50;99.90;;;;;;5049383;28;20468;-94
2023/07/02 05:12:19;;;;;;;5.73;3.20;;;15.50;99.90;;;;;;5049003;28;20499;-93
2023/07/02 05:14:46;;;;;;;3.83;3.00;;;15.50;99.90;;;;;;5045399;28;20485;-93
2023/07/02 05:17:14;;;;;;;3.93;2.63;;;15.50;99.90;;;;;;5045128;28;20476;-93
2023/07/02 05:19:42;;;;;;;3.83;2.50;;;15.50;99.90;;;;;;5044844;28;20555;-93
2023/07/02 05:22:11;;;;;;;3.20;2.13;;;15.50;99.90;;;;;;5048566;28;20540;-92
2023/07/02 05:24:37;;;;;;;4.00;2.77;;;15.50;99.90;;;;;;5053933;28;20476;-94
2023/07/02 05:27:05;;;;;;;3.70;2.70;;;15.60;99.90;;;;;;5056331;28;20456;-93
2023/07/02 05:29:32;;;;;;;7.03;3.00;;;15.60;99.90;;;;;;5056402;28;20535;-95
2023/07/02 05:31:58;;;;;;;3.37;3.07;;;15.60;99.90;;;;;;5055731;28;20524;-93
2023/07/02 05:34:25;;;;;;;5.10;3.10;;;15.70;99.90;;;;;;5056241;28;20507;-95
2023/07/02 05:36:52;;;;;;;4.57;2.80;;;15.70;99.90;;;;;;5057231;28;20968;-93
2023/07/02 05:39:21;;;;;;;5.17;2.90;;;15.70;99.90;;;;;;5055430;28;20524;-93
2023/07/02 05:41:48;;;;;;;3.43;2.80;;;15.80;99.90;;;;;;5056088;28;20483;-94
2023/07/02 05:44:15;;;;;;;4.03;3.60;;;15.70;99.90;;;;;;5054808;28;20473;-92
2023/07/02 05:46:42;;;;;;;3.50;2.50;;;15.70;99.90;;;;;;5052353;28;20460;-92
2023/07/02 05:49:09;;;;;;;5.43;2.83;;;15.80;99.90;;;;;;5050215;28;20463;-91
2023/07/02 05:51:35;;;;;;;5.17;2.77;;;15.80;99.90;;;;;;5051600;28;20488;-92
2023/07/02 05:54:02;;;;;;;4.33;3.20;;;15.80;99.90;;;;;;5052749;28;20458;-94
2023/07/02 05:56:37;;;;;;;3.53;2.90;;;15.90;99.90;;;;;;5057372;28;20547;-95
2023/07/02 05:59:04;;;;;;;3.20;2.37;;;15.90;99.90;;;;;;5056396;28;20448;-93
2023/07/02 06:01:30;;;;;;;3.03;2.73;;;15.90;99.90;;;;;;5055958;28;20524;-93
2023/07/02 06:03:57;;;;;;;5.53;3.85;;;16.00;99.90;;;;;;5046787;28;20449;-90
2023/07/02 06:06:24;;;;;;;4.50;3.37;;;16.00;99.90;;;;;;5033650;28;20468;-90
2023/07/02 06:08:51;;;;;;;6.23;3.50;;;16.00;99.90;;;;;;5033005;28;20456;-90
2023/07/02 06:11:17;;;;;;;5.87;4.23;;;16.10;99.90;;;;;;5032607;28;20842;-89
2023/07/02 06:13:46;;;;;;;4.33;3.13;;;16.20;99.90;;;;;;5032764;28;20464;-89
2023/07/02 06:16:12;;;;;;;5.10;3.43;;;16.20;99.90;;;;;;5032957;28;20499;-89
2023/07/02 06:18:39;;;;;;;4.33;3.60;;;16.20;99.90;;;;;;5034076;28;20988;-90
2023/07/02 06:21:06;;;;;;;4.43;4.03;;;16.20;99.90;;;;;;5030094;28;20825;-90
2023/07/02 06:23:41;;;;;;;10.03;4.50;;;16.20;99.90;;;;;;5030174;28;20468;-90
2023/07/02 06:26:07;;;;;;;6.17;3.70;;;16.30;99.90;;;;;;5029773;28;20483;-89
2023/07/02 06:28:34;;;;;;;6.00;4.33;;;16.30;99.90;;;;;;5031541;28;20474;-90
2023/07/02 06:31:02;;;;;;;6.27;4.20;;;16.40;99.90;;;;;;5031369;28;20480;-87
2023/07/02 06:33:29;;;;;;;6.70;4.90;;;16.40;99.90;;;;;;5030899;28;20469;-90
2023/07/02 06:35:56;;;;;;;5.00;3.97;;;16.60;99.90;;;;;;5029495;28;20590;-90
2023/07/02 06:38:23;;;;;;;6.23;5.07;;;16.60;99.90;;;;;;5030063;28;20457;-87
2023/07/02 06:40:49;;;;;;;5.07;4.40;;;16.70;99.90;;;;;;5030550;28;20990;-90
2023/07/02 06:43:16;;;;;;;8.97;4.33;;;16.70;99.90;;;;;;5029402;28;20468;-90
2023/07/02 06:45:43;;;;;;;10.07;5.20;;;16.70;99.90;;;;;;5029232;28;20516;-89
2023/07/02 06:48:11;;;;;;;5.30;4.80;;;16.70;99.90;;;;;;5045719;28;20475;-89
2023/07/02 06:50:38;;;;;;;7.77;5.03;;;16.80;99.90;;;;;;5046561;28;20542;-89
2023/07/02 06:53:04;;;;;;;8.43;5.47;;;16.80;99.90;;;;;;5048663;28;20455;-89
2023/07/02 06:55:31;;;;;;;7.67;5.23;;;16.90;99.90;;;;;;5048789;28;20498;-90
2023/07/02 06:57:58;;;;;;;5.87;4.97;;;17.00;99.90;;;;;;5050657;28;20463;-89
2023/07/02 07:00:24;;;;;;;10.47;5.30;;;17.10;99.90;;;;;;5051729;28;20459;-89
2023/07/02 07:02:51;;;;;;;11.03;6.10;;;17.20;99.90;;;;;;5050967;28;20455;-91
2023/07/02 07:05:19;;;;;;;9.13;5.37;;;17.20;99.90;;;;;;5051817;28;20483;-89
2023/07/02 07:07:46;;;;;;;8.13;5.67;;;17.20;99.90;;;;;;5051586;28;20953;-90
2023/07/02 07:10:13;;;;;;;9.43;5.97;;;17.30;99.90;;;;;;5052161;28;20470;-89
2023/07/02 07:12:39;;;;;;;12.40;5.77;;;17.20;99.90;;;;;;5051678;28;20467;-90
2023/07/02 07:15:07;;;;;;;7.30;5.60;;;17.20;99.90;;;;;;5051904;28;20487;-89
2023/07/02 07:17:34;;;;;;;8.33;6.70;;;17.30;99.90;;;;;;5048765;28;20972;-90
2023/07/02 07:20:02;;;;;;;11.20;6.67;;;17.30;99.90;;;;;;5051310;28;20530;-90
2023/07/02 07:22:30;;;;;;;9.73;5.87;;;17.40;99.90;;;;;;5049332;28;20471;-89
2023/07/02 07:24:57;;;;;;;11.73;6.10;;;17.30;99.90;;;;;;5050544;28;20479;-89
2023/07/02 07:27:23;;;;;;;8.17;6.30;;;17.30;99.90;;;;;;5049468;28;20468;-89
2023/07/02 07:29:50;;;;;;;10.20;6.37;;;17.40;99.90;;;;;;5054881;28;20466;-89
2023/07/02 07:32:17;;;;;;;9.47;6.33;;;17.60;99.90;;;;;;5054535;28;20466;-89
2023/07/02 07:34:44;;;;;;;10.47;6.70;;;17.60;99.90;;;;;;5055024;28;20526;-90
2023/07/02 07:37:10;;;;;;;10.40;7.17;;;17.70;99.90;;;;;;5054230;28;20949;-89
2023/07/02 07:39:39;;;;;;;11.67;6.73;;;17.70;99.90;;;;;;5054402;28;20467;-90
2023/07/02 07:42:06;;;;;;;11.70;7.70;;;17.70;99.90;;;;;;5045981;28;20467;-89
2023/07/02 07:44:33;;;;;;;13.50;7.40;;;17.70;99.90;;;;;;5037957;28;20491;-90
2023/07/02 07:47:00;;;;;;;11.87;6.67;;;17.70;99.90;;;;;;5054316;28;20541;-90
2023/07/02 07:49:27;;;;;;;14.30;7.70;;;17.70;99.90;;;;;;5076408;28;20431;-90
2023/07/02 07:51:54;;;;;;;11.90;6.37;;;17.80;99.90;;;;;;5070169;28;20466;-89
2023/07/02 07:54:20;;;;;;;13.07;7.80;;;17.90;99.90;;;;;;5055236;28;20996;-89
2023/07/02 07:56:48;;;;;;;13.27;7.80;;;18.10;99.90;;;;;;5049897;28;20484;-89
2023/07/02 07:59:15;;;;;;;10.03;6.50;;;18.20;99.90;;;;;;5055232;28;20468;-89
2023/07/02 08:01:42;;;;;;;11.63;6.67;;;18.20;99.90;;;;;;5055081;28;20476;-90
2023/07/02 08:04:08;;;;;;;10.83;7.37;;;18.20;99.90;;;;;;5053702;28;20475;-89
2023/07/02 08:06:35;;;;;;;8.93;7.03;;;18.40;99.90;;;;;;5052333;28;20950;-90
2023/07/02 08:09:03;;;;;;;9.43;6.70;;;18.40;99.90;;;;;;5052262;28;20470;-89
2023/07/02 08:11:29;;;;;;;9.97;6.60;;;18.50;99.90;;;;;;5055021;28;20467;-89
2023/07/02 08:13:57;;;;;;;13.50;8.00;;;18.60;99.90;;;;;;5054669;28;20853;-89
2023/07/02 08:16:24;;;;;;;13.60;8.73;;;18.70;99.90;;;;;;5054263;28;20483;-90
2023/07/02 08:18:51;;;;;;;9.90;6.97;;;18.70;99.90;;;;;;5055045;28;20463;-89
2023/07/02 08:21:17;;;;;;;10.63;7.10;;;18.70;99.90;;;;;;5054590;28;20460;-89
2023/07/02 08:23:44;;;;;;;14.33;7.67;;;18.70;99.90;;;;;;5054321;28;20987;-89
2023/07/02 08:26:11;;;;;;;15.63;7.80;;;18.70;99.90;;;;;;5054505;28;20520;-90
2023/07/02 08:28:38;;;;;;;11.43;7.47;;;18.70;99.90;;;;;;5055242;28;20478;-90
2023/07/02 08:31:07;;;;;;;12.90;7.10;;;18.80;99.90;;;;;;5054948;28;20541;-90
2023/07/02 08:33:33;;;;;;;7.90;6.97;;;18.90;99.90;;;;;;5054372;28;20987;-90
2023/07/02 08:36:00;;;;;;;8.67;6.60;;;18.80;99.90;;;;;;5054299;28;20514;-89
2023/07/02 08:38:27;;;;;;;9.77;7.07;;;18.80;99.90;;;;;;5055676;28;20475;-90
2023/07/02 08:40:54;;;;;;;12.53;6.70;;;18.90;99.90;;;;;;5057118;28;20471;-90
2023/07/02 08:43:21;;;;;;;10.70;8.10;;;18.90;99.90;;;;;;5059938;28;20455;-90
2023/07/02 08:45:47;;;;;;;12.93;8.43;;;18.90;99.90;;;;;;5055147;28;20471;-90
2023/07/02 08:48:17;;;;;;;16.83;8.40;;;19.00;99.90;;;;;;5062802;28;20472;-90
2023/07/02 08:50:43;;;;;;;10.03;7.07;;;19.00;99.90;;;;;;5060097;28;20463;-90
2023/07/02 08:53:10;;;;;;;9.57;6.50;;;19.00;99.90;;;;;;5059331;28;20477;-89
2023/07/02 08:55:37;;;;;;;12.53;6.83;;;19.10;99.90;;;;;;5058499;28;20503;-89
2023/07/02 08:58:03;;;;;;;13.07;7.70;;;19.20;99.90;;;;;;5054570;28;20464;-90
2023/07/02 09:00:36;;;;;;;10.10;6.77;;;19.30;99.90;;;;;;5054649;28;20471;-90
2023/07/02 09:03:13;;;;;;;14.63;7.20;;;19.40;99.90;;;;;;5054780;28;20513;-90
2023/07/02 09:05:50;;;;;;;9.53;7.07;;;19.50;99.90;;;;;;5055443;28;20491;-89
2023/07/02 09:08:24;;;;;;;10.40;7.40;;;19.60;99.90;;;;;;5055816;28;20484;-90
2023/07/02 09:10:51;;;;;;;8.13;6.30;;;19.80;99.90;;;;;;5056056;28;20465;-90
2023/07/02 09:13:17;;;;;;;9.70;6.00;;;19.80;99.90;;;;;;5054200;28;20463;-90
2023/07/02 09:15:44;;;;;;;11.40;6.10;;;19.90;99.90;;;;;;5054915;28;20493;-90
2023/07/02 09:18:18;;;;;;;8.13;6.03;;;19.90;99.90;;;;;;5054061;28;20471;-90
2023/07/02 09:20:50;;;;;;;10.47;7.00;;;19.90;99.90;;;;;;5055330;28;20470;-90
2023/07/02 09:23:18;;;;;;;13.90;6.13;;;19.80;99.90;;;;;;5054427;28;20466;-89
2023/07/02 09:25:45;;;;;;;10.07;7.00;;;19.80;99.90;;;;;;5056737;28;20473;-89
2023/07/02 09:28:16;;;;;;;8.23;6.57;;;19.90;99.90;;;;;;5059228;28;20472;-90
2023/07/02 09:30:53;;;;;;;10.50;6.73;;;20.00;99.90;;;;;;5058527;28;20466;-90
2023/07/02 09:33:20;;;;;;;6.83;6.13;;;20.10;99.90;;;;;;5071336;28;20463;-89
2023/07/02 09:35:47;;;;;;;8.63;5.47;;;20.30;99.90;;;;;;5064429;28;20489;-89
2023/07/02 09:38:14;;;;;;;9.57;6.93;;;20.40;99.90;;;;;;5053887;28;20576;-89
2023/07/02 09:40:47;;;;;;;9.40;7.57;;;20.50;99.90;;;;;;5054187;28;20476;-91
2023/07/02 09:43:15;;;;;;;8.30;5.90;;;20.50;99.90;;;;;;5054461;28;20458;-90
2023/07/02 09:45:44;;;;;;;10.20;6.37;;;20.50;99.90;;;;;;5055350;28;20486;-90
2023/07/02 09:48:14;;;;;;;7.47;5.83;;;20.60;99.90;;;;;;5056723;28;20459;-89
2023/07/02 09:50:41;;;;;;;9.20;6.40;;;20.60;99.90;;;;;;5056953;28;20489;-91
2023/07/02 09:53:08;;;;;;;10.53;7.10;;;20.50;99.90;;;;;;5054780;28;20480;-89
2023/07/02 09:55:35;;;;;;;12.90;8.00;;;20.40;99.90;;;;;;5056084;28;20983;-90
2023/07/02 09:58:03;;;;;;;11.43;7.80;;;20.20;99.90;;;;;;5054820;28;20460;-90
2023/07/02 10:00:30;;;;;;;13.40;8.17;;;20.20;99.90;;;;;;5055572;28;20470;-90
2023/07/02 10:02:57;;;;;;;11.73;8.70;;;20.10;99.90;;;;;;5054198;28;20468;-90
2023/07/02 10:05:28;;;;;;;12.33;7.83;;;20.00;99.90;;;;;;5055527;28;20511;-91
2023/07/02 10:07:55;;;;;;;13.53;9.00;;;20.10;99.90;;;;;;5055401;28;20484;-90
2023/07/02 10:10:32;;;;;;;12.10;8.50;;;20.30;99.90;;;;;;5054204;28;20461;-90
2023/07/02 10:12:59;;;;;;;14.10;9.57;;;20.50;99.90;;;;;;5055112;28;20462;-90
2023/07/02 10:15:28;;;;;;;15.73;9.90;;;20.70;99.90;;;;;;5054119;28;20477;-91
2023/07/02 10:17:56;;;;;;;9.97;8.10;;;20.80;99.90;;;;;;5053490;28;20541;-90
2023/07/02 10:20:33;;;;;;;11.17;8.10;;;21.00;99.90;;;;;;5053883;28;20467;-91
2023/07/02 10:23:01;;;;;;;11.60;8.23;;;21.20;99.90;;;;;;5051512;28;20491;-90
2023/07/02 10:25:29;;;;;;;11.80;7.70;;;21.30;99.90;;;;;;5054659;28;20851;-90
2023/07/02 10:27:56;;;;;;;11.10;7.60;;;21.40;99.90;;;;;;5053104;28;20464;-91
2023/07/02 10:30:34;;;;;;;11.40;7.10;;;21.50;99.90;;;;;;5055697;28;20455;-91
2023/07/02 10:33:11;;;;;;;12.03;7.83;;;21.40;99.90;;;;;;5056108;28;20864;-90
2023/07/02 10:35:38;;;;;;;12.60;7.50;;;21.30;99.90;;;;;;5053224;28;20490;-91
2023/07/02 10:38:06;;;;;;;12.80;7.20;;;21.30;99.90;;;;;;5053903;28;20467;-90
2023/07/02 10:40:34;;;;;;;11.00;7.83;;;21.50;99.90;;;;;;5055731;28;20456;-91
2023/07/02 10:43:01;;;;;;;10.03;7.53;;;21.80;99.90;;;;;;5053911;28;20476;-89
2023/07/02 10:45:36;;;;;;;13.20;7.67;;;21.90;99.90;;;;;;5054869;28;20483;-91
2023/07/02 10:48:04;;;;;;;12.73;8.10;;;22.00;99.90;;;;;;5054556;28;20781;-91
2023/07/02 10:50:32;;;;;;;10.50;7.33;;;22.10;99.90;;;;;;5053820;28;20502;-91
2023/07/02 10:52:59;;;;;;;11.63;8.10;;;22.30;99.90;;;;;;5054064;28;20523;-91
2023/07/02 10:55:28;;;;;;;12.07;8.50;;;22.30;99.90;;;;;;5054407;28;20479;-92
2023/07/02 10:58:05;;;;;;;11.53;8.20;;;22.30;99.90;;;;;;5051620;28;20481;-92
2023/07/02 11:00:32;;;;;;;9.23;7.17;;;22.30;99.90;;;;;;5053706;28;20467;-92
2023/07/02 11:03:00;;;;;;;9.93;8.03;;;22.30;99.90;;;;;;5053162;28;20467;-91
2023/07/02 11:05:27;;;;;;;16.83;8.77;;;22.30;99.90;;;;;;5053779;28;20484;-92
2023/07/02 11:07:56;;;;;;;14.07;7.70;;;22.30;99.90;;;;;;5054148;28;20456;-91
2023/07/02 11:10:24;;;;;;;11.90;7.97;;;22.30;99.90;;;;;;5054657;28;20890;-92
2023/07/02 11:12:53;;;;;;;12.40;7.73;;;22.30;99.90;;;;;;5053745;28;20472;-91
2023/07/02 11:15:20;;;;;;;9.17;7.20;;;22.30;99.90;;;;;;5055127;28;20481;-92
2023/07/02 11:17:47;;;;;;;8.10;7.00;;;22.60;99.90;;;;;;5055728;28;20486;-93
2023/07/02 11:20:16;;;;;;;10.87;7.13;;;22.80;99.90;;;;;;5056713;28;20992;-91
2023/07/02 11:22:42;;;;;;;9.53;8.23;;;22.80;99.90;;;;;;5057489;28;20472;-92
2023/07/02 11:25:13;;;;;;;10.60;7.60;;;22.70;99.90;;;;;;5057236;28;21016;-91
2023/07/02 11:27:40;;;;;;;12.63;8.10;;;22.50;99.90;;;;;;5055806;28;20466;-91
2023/07/02 11:30:08;;;;;;;8.00;6.67;;;22.40;99.90;;;;;;5055566;28;20471;-91
2023/07/02 11:32:48;;;;;;;12.10;7.63;;;22.30;99.90;;;;;;5056279;28;20463;-92
2023/07/02 11:35:17;;;;;;;10.33;7.17;;;22.10;98.50;;;;;;5058646;28;20487;-92
2023/07/02 11:37:45;;;;;;;13.00;7.40;;;21.90;98.50;;;;;;5054719;28;20492;-91
2023/07/02 11:40:13;;;;;;;10.13;7.73;;;21.80;99.00;;;;;;5056850;28;20535;-91
2023/07/02 11:42:40;;;;;;;9.53;7.10;;;21.80;99.90;;;;;;5054935;28;20467;-92
2023/07/02 11:45:08;;;;;;;10.93;6.77;;;21.90;99.60;;;;;;5055327;28;20507;-91
2023/07/02 11:47:34;;;;;;;11.90;7.50;;;22.00;99.50;;;;;;5053205;28;20654;-90
2023/07/02 11:50:01;;;;;;;11.83;8.07;;;22.20;99.90;;;;;;5055636;28;20860;-91
2023/07/02 11:52:29;;;;;;;12.53;7.30;;;22.40;99.90;;;;;;5054194;28;20460;-90
2023/07/02 11:54:56;;;;;;;8.50;6.83;;;22.70;98.30;;;;;;5054707;28;20492;-91
2023/07/02 11:57:23;;;;;;;10.10;7.33;;;22.90;99.60;;;;;;5053626;28;20487;-90
2023/07/02 11:59:50;;;;;;;11.50;7.10;;;23.20;99.70;;;;;;5054185;28;20527;-91
2023/07/02 12:02:17;;;;;;;12.53;8.13;;;23.30;97.90;;;;;;5054900;28;20479;-92
2023/07/02 12:04:43;;;;;;;11.07;7.70;;;23.60;99.40;;;;;;5051938;28;20486;-91
2023/07/02 12:07:10;;;;;;;9.77;7.13;;;23.80;99.90;;;;;;5054377;28;20458;-92
2023/07/02 12:09:38;;;;;;;9.93;7.33;;;23.90;98.60;;;;;;5054456;28;20469;-91
2023/07/02 12:12:05;;;;;;;10.13;7.50;;;23.80;98.60;;;;;;5054015;28;20983;-92
2023/07/02 12:14:32;;;;;;;10.20;6.47;;;23.70;97.70;;;;;;5056560;28;20505;-91
2023/07/02 12:16:59;;;;;;;10.87;7.03;;;23.50;98.40;;;;;;5060700;28;20556;-91
2023/07/02 12:19:26;;;;;;;9.57;7.00;;;23.20;97.80;;;;;;5057528;28;20494;-92
2023/07/02 12:21:52;;;;;;;10.87;7.60;;;23.20;98.20;;;;;;5056814;28;20524;-92
2023/07/02 12:24:19;;;;;;;10.17;7.90;;;23.10;97.80;;;;;;5057296;28;20489;-92
2023/07/02 12:26:47;;;;;;;11.47;7.53;;;23.00;98.00;;;;;;5056577;28;20462;-90
2023/07/02 12:29:14;;;;;;;8.97;7.03;;;22.70;97.60;;;;;;5058106;28;20465;-90
2023/07/02 12:31:40;;;;;;;10.13;7.30;;;22.50;98.80;;;;;;5056368;28;20468;-90
2023/07/02 12:34:07;;;;;;;10.57;6.80;;;22.50;98.90;;;;;;5055915;28;20484;-91
2023/07/02 12:36:34;;;;;;;10.00;7.33;;;22.60;98.20;;;;;;5057898;28;20482;-90
2023/07/02 12:39:01;;;;;;;9.17;6.73;;;22.70;96.30;;;;;;5056585;28;20490;-91
2023/07/02 12:41:28;;;;;;;14.20;6.70;;;22.90;97.30;;;;;;5056202;28;20461;-91
2023/07/02 12:43:56;;;;;;;10.50;7.07;;;23.20;97.90;;;;;;5056669;28;20544;-90
2023/07/02 12:46:23;;;;;;;10.23;6.23;;;23.30;97.00;;;;;;5056375;28;20467;-91
2023/07/02 12:48:50;;;;;;;10.47;7.40;;;23.30;96.40;;;;;;5055755;28;20476;-92